Northern Maine Regional Airport at Presque Isle Presque Isle US
ICAO: KPQI
IATA: PQI
Category: Medium
Scheduled Services: Yes

Elevation: 534 ft
TransAlt. 18000 ft.

Airport Communications:
AWOS 3:118.025
BOSTON CLNC DEL:121.6
BOSTON CNTR:124.75
CTAF/UNICOM:122.8

KPQI Zoom In..

If you have problems with the map follow the link
https://www.worldairports.se/pages/airport.php?
ICAO=KPQI

Runways:

(A) RW 01 length 7439 ft width 150 ft
ILS 108.70 / hdg 6

(B) RW 10 length 5994 ft width 100 ft
---- / hdg 96

(C) RW 19 length 7439 ft width 150 ft
---- / hdg 186

(D) RW 28 length 5994 ft width 100 ft
---- / hdg 276

Location; KPQI
Day. 21 / Time. 04.56 Zulu
* Altimeter: 30.16
* Temperature: -17° c. -1.4°f.
* Wind from: 290° Speed 04 kn.
Dewpoint: -19° c.
Visibility: 10 Statute Miles.
Clouds: Overcast 2600 ft.

KPQI 210456Z AUTO 29004KT 10SM OVC026 M17/M19 A3016 RMK AO2 SLP254 T11721194 410781206


Wind From 290°
Speed 04 kn.

 
 
jpsmedia worldairports.se 2020   terms of use